sensor_id;sensor_type;location;lat;lon;timestamp;pressure;altitude;pressure_sealevel;temperature;humidity
18987;BME280;9627;59.236;18.142;2023-02-20T00:01:51;100153.13;;;-4.26;100.00
18987;BME280;9627;59.236;18.142;2023-02-20T00:04:19;100145.75;;;-4.32;100.00
18987;BME280;9627;59.236;18.142;2023-02-20T00:06:46;100148.22;;;-4.30;100.00
18987;BME280;9627;59.236;18.142;2023-02-20T00:09:13;100156.13;;;-4.32;100.00
18987;BME280;9627;59.236;18.142;2023-02-20T00:11:40;100152.91;;;-4.35;100.00
18987;BME280;9627;59.236;18.142;2023-02-20T00:14:07;100137.47;;;-4.37;100.00
18987;BME280;9627;59.236;18.142;2023-02-20T00:16:36;100127.53;;;-4.43;100.00
18987;BME280;9627;59.236;18.142;2023-02-20T00:19:03;100126.47;;;-4.40;100.00
18987;BME280;9627;59.236;18.142;2023-02-20T00:21:30;100118.59;;;-4.39;100.00
18987;BME280;9627;59.236;18.142;2023-02-20T00:23:57;100108.44;;;-4.42;100.00
18987;BME280;9627;59.236;18.142;2023-02-20T00:26:24;100108.84;;;-4.48;100.00
18987;BME280;9627;59.236;18.142;2023-02-20T00:28:51;100107.09;;;-4.47;100.00
18987;BME280;9627;59.236;18.142;2023-02-20T00:31:18;100112.09;;;-4.44;100.00
18987;BME280;9627;59.236;18.142;2023-02-20T00:33:47;100119.03;;;-4.45;100.00
18987;BME280;9627;59.236;18.142;2023-02-20T00:36:14;100112.16;;;-4.46;100.00
18987;BME280;9627;59.236;18.142;2023-02-20T00:38:42;100112.91;;;-4.44;100.00
18987;BME280;9627;59.236;18.142;2023-02-20T00:41:09;100110.31;;;-4.44;100.00
18987;BME280;9627;59.236;18.142;2023-02-20T00:43:38;100118.28;;;-4.47;100.00
18987;BME280;9627;59.236;18.142;2023-02-20T00:46:05;100098.28;;;-4.45;100.00
18987;BME280;9627;59.236;18.142;2023-02-20T00:48:31;100089.78;;;-4.47;100.00
18987;BME280;9627;59.236;18.142;2023-02-20T00:51:00;100085.22;;;-4.43;100.00
18987;BME280;9627;59.236;18.142;2023-02-20T00:53:27;100081.72;;;-4.42;100.00
18987;BME280;9627;59.236;18.142;2023-02-20T00:55:54;100068.84;;;-4.44;100.00
18987;BME280;9627;59.236;18.142;2023-02-20T00:58:21;100065.47;;;-4.44;100.00
18987;BME280;9627;59.236;18.142;2023-02-20T01:00:48;100057.03;;;-4.48;100.00
18987;BME280;9627;59.236;18.142;2023-02-20T01:03:15;100056.84;;;-4.45;100.00
18987;BME280;9627;59.236;18.142;2023-02-20T01:05:42;100061.06;;;-4.44;100.00
18987;BME280;9627;59.236;18.142;2023-02-20T01:08:10;100052.88;;;-4.38;100.00
18987;BME280;9627;59.236;18.142;2023-02-20T01:10:37;100050.00;;;-4.46;100.00
18987;BME280;9627;59.236;18.142;2023-02-20T01:13:04;100046.91;;;-4.51;100.00
18987;BME280;9627;59.236;18.142;2023-02-20T01:15:31;100027.50;;;-4.45;100.00
18987;BME280;9627;59.236;18.142;2023-02-20T01:17:58;100025.34;;;-4.39;100.00
18987;BME280;9627;59.236;18.142;2023-02-20T01:20:25;100029.47;;;-4.36;100.00
18987;BME280;9627;59.236;18.142;2023-02-20T01:22:52;100026.78;;;-4.35;100.00
18987;BME280;9627;59.236;18.142;2023-02-20T01:25:21;100017.03;;;-4.44;100.00
18987;BME280;9627;59.236;18.142;2023-02-20T01:27:48;100024.09;;;-4.46;100.00
18987;BME280;9627;59.236;18.142;2023-02-20T01:30:17;100007.75;;;-4.46;100.00
18987;BME280;9627;59.236;18.142;2023-02-20T01:32:45;100006.19;;;-4.49;100.00
18987;BME280;9627;59.236;18.142;2023-02-20T01:35:13;99999.78;;;-4.56;100.00
18987;BME280;9627;59.236;18.142;2023-02-20T01:37:40;99989.91;;;-4.51;100.00
18987;BME280;9627;59.236;18.142;2023-02-20T01:40:12;99995.19;;;-4.52;100.00
18987;BME280;9627;59.236;18.142;2023-02-20T01:42:41;99984.97;;;-4.54;100.00
18987;BME280;9627;59.236;18.142;2023-02-20T01:45:15;99989.78;;;-4.49;100.00
18987;BME280;9627;59.236;18.142;2023-02-20T01:47:43;99981.19;;;-4.37;100.00
18987;BME280;9627;59.236;18.142;2023-02-20T01:50:10;99968.94;;;-4.35;100.00
18987;BME280;9627;59.236;18.142;2023-02-20T01:52:38;99962.81;;;-4.34;100.00
18987;BME280;9627;59.236;18.142;2023-02-20T01:55:08;99952.56;;;-4.36;100.00
18987;BME280;9627;59.236;18.142;2023-02-20T01:57:37;99948.81;;;-4.32;100.00
18987;BME280;9627;59.236;18.142;2023-02-20T02:00:09;99944.34;;;-4.30;100.00
18987;BME280;9627;59.236;18.142;2023-02-20T02:02:38;99942.81;;;-4.32;100.00
18987;BME280;9627;59.236;18.142;2023-02-20T02:05:07;99935.16;;;-4.34;100.00
18987;BME280;9627;59.236;18.142;2023-02-20T02:07:36;99929.72;;;-4.31;100.00
18987;BME280;9627;59.236;18.142;2023-02-20T02:10:03;99916.13;;;-4.22;100.00
18987;BME280;9627;59.236;18.142;2023-02-20T02:12:32;99917.78;;;-4.21;100.00
18987;BME280;9627;59.236;18.142;2023-02-20T02:14:59;99912.09;;;-4.26;100.00
18987;BME280;9627;59.236;18.142;2023-02-20T02:17:38;99895.06;;;-4.17;100.00
18987;BME280;9627;59.236;18.142;2023-02-20T02:20:19;99886.97;;;-4.13;100.00
18987;BME280;9627;59.236;18.142;2023-02-20T02:25:50;99867.41;;;-4.06;100.00
18987;BME280;9627;59.236;18.142;2023-02-20T02:31:11;99864.59;;;-4.14;100.00
18987;BME280;9627;59.236;18.142;2023-02-20T02:33:59;99861.44;;;-4.06;100.00
18987;BME280;9627;59.236;18.142;2023-02-20T02:36:35;99843.97;;;-4.04;100.00
18987;BME280;9627;59.236;18.142;2023-02-20T02:39:05;99834.56;;;-4.05;100.00
18987;BME280;9627;59.236;18.142;2023-02-20T02:41:38;99827.81;;;-4.08;100.00
18987;BME280;9627;59.236;18.142;2023-02-20T02:44:10;99825.72;;;-4.03;100.00
18987;BME280;9627;59.236;18.142;2023-02-20T02:46:39;99808.06;;;-3.98;100.00
18987;BME280;9627;59.236;18.142;2023-02-20T02:49:10;99803.13;;;-4.01;100.00
18987;BME280;9627;59.236;18.142;2023-02-20T02:51:41;99803.81;;;-3.99;100.00
18987;BME280;9627;59.236;18.142;2023-02-20T02:54:13;99799.09;;;-3.94;100.00
18987;BME280;9627;59.236;18.142;2023-02-20T02:56:41;99789.31;;;-3.90;100.00
18987;BME280;9627;59.236;18.142;2023-02-20T02:59:10;99779.78;;;-3.90;100.00
18987;BME280;9627;59.236;18.142;2023-02-20T03:01:38;99771.66;;;-3.85;100.00
18987;BME280;9627;59.236;18.142;2023-02-20T03:04:08;99774.84;;;-3.82;100.00
18987;BME280;9627;59.236;18.142;2023-02-20T03:06:36;99785.69;;;-3.88;100.00
18987;BME280;9627;59.236;18.142;2023-02-20T03:09:06;99788.50;;;-3.91;100.00
18987;BME280;9627;59.236;18.142;2023-02-20T03:11:34;99779.09;;;-3.92;100.00
18987;BME280;9627;59.236;18.142;2023-02-20T03:14:03;99784.53;;;-3.84;100.00
18987;BME280;9627;59.236;18.142;2023-02-20T03:16:49;99777.22;;;-3.79;100.00
18987;BME280;9627;59.236;18.142;2023-02-20T03:19:19;99767.88;;;-3.81;100.00
18987;BME280;9627;59.236;18.142;2023-02-20T03:21:50;99761.66;;;-3.67;100.00
18987;BME280;9627;59.236;18.142;2023-02-20T03:24:21;99763.53;;;-3.69;100.00
18987;BME280;9627;59.236;18.142;2023-02-20T03:26:49;99756.94;;;-3.62;100.00
18987;BME280;9627;59.236;18.142;2023-02-20T03:29:20;99753.41;;;-3.61;100.00
18987;BME280;9627;59.236;18.142;2023-02-20T03:31:52;99752.34;;;-3.59;100.00
18987;BME280;9627;59.236;18.142;2023-02-20T03:34:37;99752.81;;;-3.65;100.00
18987;BME280;9627;59.236;18.142;2023-02-20T03:37:22;99742.31;;;-3.52;100.00
18987;BME280;9627;59.236;18.142;2023-02-20T03:40:11;99749.16;;;-3.40;100.00
18987;BME280;9627;59.236;18.142;2023-02-20T03:42:58;99732.72;;;-3.30;100.00
18987;BME280;9627;59.236;18.142;2023-02-20T03:45:44;99733.06;;;-3.23;100.00
18987;BME280;9627;59.236;18.142;2023-02-20T03:48:13;99728.81;;;-3.13;100.00
18987;BME280;9627;59.236;18.142;2023-02-20T03:50:41;99711.00;;;-3.18;100.00
18987;BME280;9627;59.236;18.142;2023-02-20T03:53:08;99701.44;;;-3.17;100.00
18987;BME280;9627;59.236;18.142;2023-02-20T03:55:37;99688.16;;;-3.03;100.00
18987;BME280;9627;59.236;18.142;2023-02-20T03:58:05;99684.78;;;-3.04;100.00
18987;BME280;9627;59.236;18.142;2023-02-20T04:00:34;99676.94;;;-2.93;100.00
18987;BME280;9627;59.236;18.142;2023-02-20T04:03:05;99658.19;;;-2.96;100.00
18987;BME280;9627;59.236;18.142;2023-02-20T04:05:35;99638.06;;;-2.83;100.00
18987;BME280;9627;59.236;18.142;2023-02-20T04:08:04;99633.56;;;-2.81;100.00
18987;BME280;9627;59.236;18.142;2023-02-20T04:10:35;99628.66;;;-2.95;100.00
18987;BME280;9627;59.236;18.142;2023-02-20T04:13:05;99625.06;;;-3.04;100.00
18987;BME280;9627;59.236;18.142;2023-02-20T04:15:33;99605.38;;;-2.86;100.00
18987;BME280;9627;59.236;18.142;2023-02-20T04:18:01;99586.88;;;-2.92;100.00
18987;BME280;9627;59.236;18.142;2023-02-20T04:20:30;99579.09;;;-2.92;100.00
18987;BME280;9627;59.236;18.142;2023-02-20T04:22:59;99572.34;;;-2.74;100.00
18987;BME280;9627;59.236;18.142;2023-02-20T04:25:29;99571.66;;;-2.76;100.00
18987;BME280;9627;59.236;18.142;2023-02-20T04:28:00;99554.69;;;-2.80;100.00
18987;BME280;9627;59.236;18.142;2023-02-20T04:30:29;99553.06;;;-2.81;100.00
18987;BME280;9627;59.236;18.142;2023-02-20T04:32:56;99539.16;;;-2.70;100.00
18987;BME280;9627;59.236;18.142;2023-02-20T04:35:23;99529.34;;;-2.67;100.00
18987;BME280;9627;59.236;18.142;2023-02-20T04:37:50;99512.69;;;-2.55;100.00
18987;BME280;9627;59.236;18.142;2023-02-20T04:40:19;99511.13;;;-2.46;100.00
18987;BME280;9627;59.236;18.142;2023-02-20T04:42:46;99495.38;;;-2.45;100.00
18987;BME280;9627;59.236;18.142;2023-02-20T04:45:13;99474.72;;;-2.46;100.00
18987;BME280;9627;59.236;18.142;2023-02-20T04:47:43;99483.22;;;-2.44;100.00
18987;BME280;9627;59.236;18.142;2023-02-20T04:50:12;99484.03;;;-2.44;100.00
18987;BME280;9627;59.236;18.142;2023-02-20T04:52:42;99468.44;;;-2.44;100.00
18987;BME280;9627;59.236;18.142;2023-02-20T04:55:09;99463.22;;;-2.44;100.00
18987;BME280;9627;59.236;18.142;2023-02-20T04:57:36;99454.22;;;-2.40;100.00
18987;BME280;9627;59.236;18.142;2023-02-20T05:00:03;99442.59;;;-2.36;100.00
18987;BME280;9627;59.236;18.142;2023-02-20T05:02:30;99443.88;;;-2.11;100.00
18987;BME280;9627;59.236;18.142;2023-02-20T05:04:58;99431.28;;;-2.25;100.00
18987;BME280;9627;59.236;18.142;2023-02-20T05:07:26;99406.94;;;-2.05;100.00
18987;BME280;9627;59.236;18.142;2023-02-20T05:09:53;99391.09;;;-2.12;100.00
18987;BME280;9627;59.236;18.142;2023-02-20T05:12:20;99383.41;;;-2.04;100.00
18987;BME280;9627;59.236;18.142;2023-02-20T05:14:47;99368.34;;;-2.00;100.00
18987;BME280;9627;59.236;18.142;2023-02-20T05:17:14;99363.28;;;-2.02;100.00
18987;BME280;9627;59.236;18.142;2023-02-20T05:19:40;99357.13;;;-1.91;100.00
18987;BME280;9627;59.236;18.142;2023-02-20T05:22:10;99345.34;;;-1.85;100.00
18987;BME280;9627;59.236;18.142;2023-02-20T05:24:46;99320.81;;;-1.83;100.00
18987;BME280;9627;59.236;18.142;2023-02-20T05:27:13;99307.69;;;-1.81;100.00
18987;BME280;9627;59.236;18.142;2023-02-20T05:29:44;99300.44;;;-1.78;100.00
18987;BME280;9627;59.236;18.142;2023-02-20T05:32:11;99281.53;;;-1.70;100.00
18987;BME280;9627;59.236;18.142;2023-02-20T05:34:39;99283.72;;;-1.75;100.00
18987;BME280;9627;59.236;18.142;2023-02-20T05:37:06;99266.75;;;-1.79;100.00
18987;BME280;9627;59.236;18.142;2023-02-20T05:39:34;99238.56;;;-1.84;100.00
18987;BME280;9627;59.236;18.142;2023-02-20T05:42:02;99227.75;;;-1.79;100.00
18987;BME280;9627;59.236;18.142;2023-02-20T05:44:29;99207.50;;;-1.85;100.00
18987;BME280;9627;59.236;18.142;2023-02-20T05:46:56;99195.19;;;-1.93;100.00
18987;BME280;9627;59.236;18.142;2023-02-20T05:49:23;99174.25;;;-1.92;100.00
18987;BME280;9627;59.236;18.142;2023-02-20T05:51:50;99151.53;;;-1.90;100.00
18987;BME280;9627;59.236;18.142;2023-02-20T05:54:17;99147.56;;;-1.94;100.00
18987;BME280;9627;59.236;18.142;2023-02-20T05:56:46;99123.44;;;-1.86;100.00
18987;BME280;9627;59.236;18.142;2023-02-20T05:59:13;99117.81;;;-1.81;100.00
18987;BME280;9627;59.236;18.142;2023-02-20T06:01:42;99091.81;;;-1.81;100.00
18987;BME280;9627;59.236;18.142;2023-02-20T06:04:09;99088.53;;;-1.83;100.00
18987;BME280;9627;59.236;18.142;2023-02-20T06:06:37;99075.63;;;-1.75;100.00
18987;BME280;9627;59.236;18.142;2023-02-20T06:09:04;99061.28;;;-1.79;100.00
18987;BME280;9627;59.236;18.142;2023-02-20T06:11:33;99044.69;;;-1.78;100.00
18987;BME280;9627;59.236;18.142;2023-02-20T06:14:02;99031.09;;;-1.72;100.00
18987;BME280;9627;59.236;18.142;2023-02-20T06:16:28;99025.81;;;-1.80;100.00
18987;BME280;9627;59.236;18.142;2023-02-20T06:18:55;99022.25;;;-1.79;100.00
18987;BME280;9627;59.236;18.142;2023-02-20T06:21:24;99004.03;;;-1.79;100.00
18987;BME280;9627;59.236;18.142;2023-02-20T06:23:52;98988.97;;;-1.76;100.00
18987;BME280;9627;59.236;18.142;2023-02-20T06:26:19;98966.66;;;-1.78;100.00
18987;BME280;9627;59.236;18.142;2023-02-20T06:28:46;98960.34;;;-1.76;100.00
18987;BME280;9627;59.236;18.142;2023-02-20T06:31:20;98941.16;;;-1.75;100.00
18987;BME280;9627;59.236;18.142;2023-02-20T06:33:47;98922.00;;;-1.74;100.00
18987;BME280;9627;59.236;18.142;2023-02-20T06:36:17;98910.00;;;-1.67;100.00
18987;BME280;9627;59.236;18.142;2023-02-20T06:38:45;98901.38;;;-1.67;100.00
18987;BME280;9627;59.236;18.142;2023-02-20T06:41:12;98888.25;;;-1.66;100.00
18987;BME280;9627;59.236;18.142;2023-02-20T06:43:39;98868.91;;;-1.63;100.00
18987;BME280;9627;59.236;18.142;2023-02-20T06:46:06;98854.47;;;-1.58;100.00
18987;BME280;9627;59.236;18.142;2023-02-20T06:48:40;98842.94;;;-1.55;100.00
18987;BME280;9627;59.236;18.142;2023-02-20T06:51:09;98834.69;;;-1.51;100.00
18987;BME280;9627;59.236;18.142;2023-02-20T06:53:36;98807.69;;;-1.50;100.00
18987;BME280;9627;59.236;18.142;2023-02-20T06:56:07;98806.75;;;-1.41;100.00
18987;BME280;9627;59.236;18.142;2023-02-20T06:58:34;98795.56;;;-1.41;100.00
18987;BME280;9627;59.236;18.142;2023-02-20T07:01:01;98776.69;;;-1.35;100.00
18987;BME280;9627;59.236;18.142;2023-02-20T07:03:28;98756.22;;;-1.30;100.00
18987;BME280;9627;59.236;18.142;2023-02-20T07:05:57;98751.69;;;-1.28;100.00
18987;BME280;9627;59.236;18.142;2023-02-20T07:08:23;98738.19;;;-1.24;100.00
18987;BME280;9627;59.236;18.142;2023-02-20T07:10:50;98734.00;;;-1.17;100.00
18987;BME280;9627;59.236;18.142;2023-02-20T07:13:19;98712.88;;;-1.06;100.00
18987;BME280;9627;59.236;18.142;2023-02-20T07:15:46;98701.81;;;-1.00;100.00
18987;BME280;9627;59.236;18.142;2023-02-20T07:18:12;98685.22;;;-0.90;100.00
18987;BME280;9627;59.236;18.142;2023-02-20T07:20:41;98686.84;;;-0.81;100.00
18987;BME280;9627;59.236;18.142;2023-02-20T07:23:09;98677.28;;;-0.73;100.00
18987;BME280;9627;59.236;18.142;2023-02-20T07:25:37;98663.25;;;-0.64;100.00
18987;BME280;9627;59.236;18.142;2023-02-20T07:28:03;98654.28;;;-0.53;100.00
18987;BME280;9627;59.236;18.142;2023-02-20T07:30:32;98631.47;;;-0.43;100.00
18987;BME280;9627;59.236;18.142;2023-02-20T07:32:59;98616.16;;;-0.30;100.00
18987;BME280;9627;59.236;18.142;2023-02-20T07:35:26;98603.44;;;-0.25;100.00
18987;BME280;9627;59.236;18.142;2023-02-20T07:37:53;98578.78;;;-0.15;100.00
18987;BME280;9627;59.236;18.142;2023-02-20T07:40:22;98575.16;;;-0.06;100.00
18987;BME280;9627;59.236;18.142;2023-02-20T07:42:49;98563.28;;;0.00;100.00
18987;BME280;9627;59.236;18.142;2023-02-20T07:45:16;98538.44;;;0.04;100.00
18987;BME280;9627;59.236;18.142;2023-02-20T07:47:43;98518.88;;;0.08;100.00
18987;BME280;9627;59.236;18.142;2023-02-20T07:50:10;98516.91;;;0.10;100.00
18987;BME280;9627;59.236;18.142;2023-02-20T07:52:37;98499.47;;;0.11;100.00
18987;BME280;9627;59.236;18.142;2023-02-20T07:55:04;98487.72;;;0.15;100.00
18987;BME280;9627;59.236;18.142;2023-02-20T07:57:34;98480.53;;;0.17;100.00
18987;BME280;9627;59.236;18.142;2023-02-20T08:00:01;98468.91;;;0.19;100.00
18987;BME280;9627;59.236;18.142;2023-02-20T08:02:29;98463.53;;;0.21;100.00
18987;BME280;9627;59.236;18.142;2023-02-20T08:04:56;98446.88;;;0.22;100.00
18987;BME280;9627;59.236;18.142;2023-02-20T08:07:23;98433.66;;;0.23;100.00
18987;BME280;9627;59.236;18.142;2023-02-20T08:09:50;98416.22;;;0.24;100.00
18987;BME280;9627;59.236;18.142;2023-02-20T08:12:17;98401.38;;;0.24;100.00
18987;BME280;9627;59.236;18.142;2023-02-20T08:14:45;98393.56;;;0.24;100.00
18987;BME280;9627;59.236;18.142;2023-02-20T08:17:15;98379.38;;;0.27;100.00
18987;BME280;9627;59.236;18.142;2023-02-20T08:19:42;98374.94;;;0.27;100.00
18987;BME280;9627;59.236;18.142;2023-02-20T08:22:09;98358.31;;;0.28;100.00
18987;BME280;9627;59.236;18.142;2023-02-20T08:24:35;98341.13;;;0.34;100.00
18987;BME280;9627;59.236;18.142;2023-02-20T08:27:02;98334.91;;;0.35;100.00
18987;BME280;9627;59.236;18.142;2023-02-20T08:29:29;98315.03;;;0.34;100.00
18987;BME280;9627;59.236;18.142;2023-02-20T08:31:58;98312.06;;;0.37;100.00
18987;BME280;9627;59.236;18.142;2023-02-20T08:34:25;98307.47;;;0.39;100.00
18987;BME280;9627;59.236;18.142;2023-02-20T08:36:52;98284.63;;;0.41;100.00
18987;BME280;9627;59.236;18.142;2023-02-20T08:39:19;98284.00;;;0.39;100.00
18987;BME280;9627;59.236;18.142;2023-02-20T08:41:46;98279.41;;;0.41;100.00
18987;BME280;9627;59.236;18.142;2023-02-20T08:44:13;98283.72;;;0.34;100.00
18987;BME280;9627;59.236;18.142;2023-02-20T08:46:44;98254.00;;;0.35;100.00
18987;BME280;9627;59.236;18.142;2023-02-20T08:49:13;98238.28;;;0.43;100.00
18987;BME280;9627;59.236;18.142;2023-02-20T08:51:42;98203.81;;;0.47;100.00
18987;BME280;9627;59.236;18.142;2023-02-20T08:54:09;98219.03;;;0.44;100.00
18987;BME280;9627;59.236;18.142;2023-02-20T08:56:36;98206.25;;;0.34;100.00
18987;BME280;9627;59.236;18.142;2023-02-20T08:59:03;98193.75;;;0.30;100.00
18987;BME280;9627;59.236;18.142;2023-02-20T09:01:30;98178.47;;;0.27;100.00
18987;BME280;9627;59.236;18.142;2023-02-20T09:03:56;98165.22;;;0.28;100.00
18987;BME280;9627;59.236;18.142;2023-02-20T09:06:25;98170.88;;;0.32;100.00
18987;BME280;9627;59.236;18.142;2023-02-20T09:08:53;98161.00;;;0.42;100.00
18987;BME280;9627;59.236;18.142;2023-02-20T09:11:20;98151.25;;;0.50;100.00
18987;BME280;9627;59.236;18.142;2023-02-20T09:13:47;98131.81;;;0.53;100.00
18987;BME280;9627;59.236;18.142;2023-02-20T09:16:15;98129.75;;;0.48;100.00
18987;BME280;9627;59.236;18.142;2023-02-20T09:18:43;98124.06;;;0.45;100.00
18987;BME280;9627;59.236;18.142;2023-02-20T09:21:10;98106.19;;;0.42;100.00
18987;BME280;9627;59.236;18.142;2023-02-20T09:23:39;98098.06;;;0.37;100.00
18987;BME280;9627;59.236;18.142;2023-02-20T09:26:07;98076.22;;;0.38;100.00
18987;BME280;9627;59.236;18.142;2023-02-20T09:28:34;98062.91;;;0.33;100.00
18987;BME280;9627;59.236;18.142;2023-02-20T09:31:01;98054.00;;;0.27;100.00
18987;BME280;9627;59.236;18.142;2023-02-20T09:33:28;98037.91;;;0.24;100.00
18987;BME280;9627;59.236;18.142;2023-02-20T09:35:55;98023.28;;;0.23;100.00
18987;BME280;9627;59.236;18.142;2023-02-20T09:38:22;98020.66;;;0.23;100.00
18987;BME280;9627;59.236;18.142;2023-02-20T09:40:55;98001.84;;;0.27;100.00
18987;BME280;9627;59.236;18.142;2023-02-20T09:43:26;97983.75;;;0.26;100.00
18987;BME280;9627;59.236;18.142;2023-02-20T09:45:57;97971.53;;;0.26;100.00
18987;BME280;9627;59.236;18.142;2023-02-20T09:48:36;97954.88;;;0.27;100.00
18987;BME280;9627;59.236;18.142;2023-02-20T09:51:06;97945.88;;;0.30;100.00
18987;BME280;9627;59.236;18.142;2023-02-20T09:53:41;97943.06;;;0.31;100.00
18987;BME280;9627;59.236;18.142;2023-02-20T09:56:15;97924.00;;;0.31;100.00
18987;BME280;9627;59.236;18.142;2023-02-20T09:58:43;97899.16;;;0.35;100.00
18987;BME280;9627;59.236;18.142;2023-02-20T10:01:11;97910.16;;;0.30;100.00
18987;BME280;9627;59.236;18.142;2023-02-20T10:03:50;97902.97;;;0.32;100.00
18987;BME280;9627;59.236;18.142;2023-02-20T10:06:18;97892.94;;;0.36;100.00
18987;BME280;9627;59.236;18.142;2023-02-20T10:08:46;97894.00;;;0.41;100.00
18987;BME280;9627;59.236;18.142;2023-02-20T10:11:18;97896.53;;;0.56;100.00
18987;BME280;9627;59.236;18.142;2023-02-20T10:13:50;97895.97;;;0.60;100.00
18987;BME280;9627;59.236;18.142;2023-02-20T10:16:19;97929.09;;;0.60;100.00
18987;BME280;9627;59.236;18.142;2023-02-20T10:18:51;97910.31;;;0.50;100.00
18987;BME280;9627;59.236;18.142;2023-02-20T10:21:23;97866.34;;;0.47;100.00
18987;BME280;9627;59.236;18.142;2023-02-20T10:23:55;97845.94;;;0.57;100.00
18987;BME280;9627;59.236;18.142;2023-02-20T10:26:27;97848.66;;;0.70;100.00
18987;BME280;9627;59.236;18.142;2023-02-20T10:28:55;97840.06;;;0.82;100.00
18987;BME280;9627;59.236;18.142;2023-02-20T10:31:28;97839.31;;;0.88;100.00
18987;BME280;9627;59.236;18.142;2023-02-20T10:34:00;97842.19;;;1.00;100.00
18987;BME280;9627;59.236;18.142;2023-02-20T10:36:30;97827.56;;;1.06;100.00
18987;BME280;9627;59.236;18.142;2023-02-20T10:39:03;97827.19;;;1.09;100.00
18987;BME280;9627;59.236;18.142;2023-02-20T10:41:33;97809.06;;;1.07;100.00
18987;BME280;9627;59.236;18.142;2023-02-20T10:44:02;97805.94;;;1.18;100.00
18987;BME280;9627;59.236;18.142;2023-02-20T10:46:35;97793.06;;;1.23;100.00
18987;BME280;9627;59.236;18.142;2023-02-20T10:49:05;97782.44;;;1.31;100.00
18987;BME280;9627;59.236;18.142;2023-02-20T10:51:36;97773.41;;;1.34;100.00
18987;BME280;9627;59.236;18.142;2023-02-20T10:54:06;97757.75;;;1.40;100.00
18987;BME280;9627;59.236;18.142;2023-02-20T10:56:37;97750.34;;;1.50;100.00
18987;BME280;9627;59.236;18.142;2023-02-20T10:59:07;97742.69;;;1.55;100.00
18987;BME280;9627;59.236;18.142;2023-02-20T11:01:36;97719.78;;;1.64;100.00
18987;BME280;9627;59.236;18.142;2023-02-20T11:04:05;97712.34;;;1.80;100.00
18987;BME280;9627;59.236;18.142;2023-02-20T11:06:36;97710.34;;;1.82;100.00
18987;BME280;9627;59.236;18.142;2023-02-20T11:09:04;97708.34;;;1.84;100.00
18987;BME280;9627;59.236;18.142;2023-02-20T11:11:34;97702.47;;;1.89;100.00
18987;BME280;9627;59.236;18.142;2023-02-20T11:14:10;97691.22;;;1.95;100.00
18987;BME280;9627;59.236;18.142;2023-02-20T11:16:40;97688.59;;;2.02;100.00
18987;BME280;9627;59.236;18.142;2023-02-20T11:19:11;97675.31;;;1.97;100.00
18987;BME280;9627;59.236;18.142;2023-02-20T11:21:40;97679.94;;;2.08;100.00
18987;BME280;9627;59.236;18.142;2023-02-20T11:24:17;97668.47;;;2.09;100.00
18987;BME280;9627;59.236;18.142;2023-02-20T11:26:44;97663.25;;;2.02;100.00
18987;BME280;9627;59.236;18.142;2023-02-20T11:29:14;97654.19;;;2.05;100.00
18987;BME280;9627;59.236;18.142;2023-02-20T11:31:42;97644.88;;;2.22;100.00
18987;BME280;9627;59.236;18.142;2023-02-20T11:34:14;97646.09;;;2.26;100.00
18987;BME280;9627;59.236;18.142;2023-02-20T11:36:42;97637.47;;;2.19;100.00
18987;BME280;9627;59.236;18.142;2023-02-20T11:39:21;97626.59;;;2.15;100.00
18987;BME280;9627;59.236;18.142;2023-02-20T11:41:49;97628.16;;;2.36;100.00
18987;BME280;9627;59.236;18.142;2023-02-20T11:44:21;97619.09;;;2.38;100.00
18987;BME280;9627;59.236;18.142;2023-02-20T11:47:08;97623.50;;;2.38;100.00
18987;BME280;9627;59.236;18.142;2023-02-20T11:49:35;97625.75;;;2.34;100.00
18987;BME280;9627;59.236;18.142;2023-02-20T11:52:06;97626.91;;;2.45;100.00
18987;BME280;9627;59.236;18.142;2023-02-20T11:54:33;97619.19;;;2.56;100.00
18987;BME280;9627;59.236;18.142;2023-02-20T11:57:00;97611.13;;;2.58;100.00
18987;BME280;9627;59.236;18.142;2023-02-20T11:59:33;97606.47;;;2.66;100.00
18987;BME280;9627;59.236;18.142;2023-02-20T12:02:11;97602.06;;;2.60;100.00
18987;BME280;9627;59.236;18.142;2023-02-20T12:04:39;97605.59;;;2.79;100.00
18987;BME280;9627;59.236;18.142;2023-02-20T12:07:16;97600.28;;;2.92;100.00
18987;BME280;9627;59.236;18.142;2023-02-20T12:09:44;97597.56;;;3.05;100.00
18987;BME280;9627;59.236;18.142;2023-02-20T12:12:13;97593.09;;;3.12;100.00
18987;BME280;9627;59.236;18.142;2023-02-20T12:14:42;97582.38;;;3.20;100.00
18987;BME280;9627;59.236;18.142;2023-02-20T12:17:12;97590.91;;;3.09;100.00
18987;BME280;9627;59.236;18.142;2023-02-20T12:19:46;97594.38;;;3.03;100.00
18987;BME280;9627;59.236;18.142;2023-02-20T12:22:19;97587.78;;;2.94;100.00
18987;BME280;9627;59.236;18.142;2023-02-20T12:24:57;97596.91;;;2.85;100.00
18987;BME280;9627;59.236;18.142;2023-02-20T12:27:33;97588.22;;;2.84;100.00
18987;BME280;9627;59.236;18.142;2023-02-20T12:30:12;97593.31;;;2.79;100.00
18987;BME280;9627;59.236;18.142;2023-02-20T12:32:46;97592.50;;;2.79;100.00
18987;BME280;9627;59.236;18.142;2023-02-20T12:35:22;97591.97;;;2.70;100.00
18987;BME280;9627;59.236;18.142;2023-02-20T12:37:53;97587.16;;;2.61;100.00
18987;BME280;9627;59.236;18.142;2023-02-20T12:40:25;97580.53;;;2.52;100.00
18987;BME280;9627;59.236;18.142;2023-02-20T12:42:56;97599.69;;;2.52;100.00
18987;BME280;9627;59.236;18.142;2023-02-20T12:45:28;97591.22;;;2.57;100.00
18987;BME280;9627;59.236;18.142;2023-02-20T12:48:11;97589.34;;;2.70;100.00
18987;BME280;9627;59.236;18.142;2023-02-20T12:50:45;97592.72;;;2.77;100.00
18987;BME280;9627;59.236;18.142;2023-02-20T12:53:27;97591.75;;;2.72;100.00
18987;BME280;9627;59.236;18.142;2023-02-20T12:56:00;97604.41;;;2.75;100.00
18987;BME280;9627;59.236;18.142;2023-02-20T12:58:37;97601.84;;;2.68;100.00
18987;BME280;9627;59.236;18.142;2023-02-20T13:01:09;97606.09;;;2.63;100.00
18987;BME280;9627;59.236;18.142;2023-02-20T13:03:38;97617.41;;;2.50;100.00
18987;BME280;9627;59.236;18.142;2023-02-20T13:06:08;97619.22;;;2.50;100.00
18987;BME280;9627;59.236;18.142;2023-02-20T13:08:38;97627.03;;;2.63;100.00
18987;BME280;9627;59.236;18.142;2023-02-20T13:11:10;97616.13;;;2.66;100.00